»·PEaware :: DCM205 KPDX-KRNO

DCM205 :: KPDX-KRNO

FLIGHT INFORMATION

Flight Status: Arrived
Operator: DotCom
More flights by this operator :: More flights under this callsign
Pilot: Chris S. (2433)
Aircraft: AIRBUS A320
(A320)
More flights by this aircraft type
Origin: KPDX Portland Intl
United States
Destination: KRNO Reno/Tahoe Intl
United States
More flights between these airports :: More routes between these airports
Route: CASCD2 PAWLI BAARB J5 HARTT EELZA2
File this flight plan on PilotEdge
Remarks:
Altitude:
(Current/Filed)
37,000ft
Speed:
(Current/Filed)
450kts
Departed: 10-Jul-20 04:45 PM
Arrived: 10-Jul-20 05:54 PM
Distance/Time
Traveled:
386nm/1:09
Distance/Time
To Go:
Arrived

Flight Plot

Page will automatically refresh every two minutes.


Map Options




Map Legend


Flown Route
Filed Route
Departure Airport
Arrival Airport
Navaid (VOR, NDB)
Fix

Horizontal Profiles

Position Reports

Time Latitude Longitude Heading Altitude Ground
Speed
10-Jul-20 16:26 45.591959 -122.597007 149 44ft 0kts
10-Jul-20 16:27 45.591959 -122.597007 149 44ft 0kts
10-Jul-20 16:28 45.591959 -122.597007 149 44ft 0kts
10-Jul-20 16:30 45.591959 -122.597007 149 44ft 0kts
10-Jul-20 16:31 45.591959 -122.597007 149 44ft 0kts
10-Jul-20 16:32 45.591959 -122.597007 149 44ft 0kts
10-Jul-20 16:33 45.591959 -122.597007 149 44ft 0kts
10-Jul-20 16:34 45.591959 -122.597007 149 44ft 0kts
10-Jul-20 16:35 45.591959 -122.597007 149 44ft 0kts
10-Jul-20 16:36 45.591959 -122.597007 149 44ft 0kts
10-Jul-20 16:37 45.592026 -122.597562 31 44ft 2kts
10-Jul-20 16:38 45.591883 -122.597680 29 44ft 0kts
10-Jul-20 16:39 45.591883 -122.597680 29 44ft 0kts
10-Jul-20 16:40 45.593349 -122.596954 51 44ft 11kts
10-Jul-20 16:41 45.591903 -122.591391 120 44ft 20kts
10-Jul-20 16:42 45.588627 -122.582984 120 44ft 28kts
10-Jul-20 16:43 45.584570 -122.572635 120 44ft 27kts
10-Jul-20 16:44 45.582755 -122.567588 100 44ft 6kts
10-Jul-20 16:45 45.586688 -122.574894 299 44ft 107kts
10-Jul-20 16:46 45.608348 -122.629604 299 1562ft 174kts
10-Jul-20 16:47 45.630263 -122.705423 302 3108ft 240kts
10-Jul-20 16:47 45.660676 -122.778937 298 5419ft 267kts
10-Jul-20 16:49 45.654252 -122.898086 236 8933ft 281kts
10-Jul-20 16:49 45.594147 -122.919096 164 10910ft 311kts
10-Jul-20 16:50 45.512799 -122.852059 134 12220ft 372kts
10-Jul-20 16:52 45.431029 -122.720393 135 14739ft 388kts
10-Jul-20 16:52 45.368918 -122.624709 135 16405ft 400kts
10-Jul-20 16:53 45.292599 -122.506411 135 18285ft 413kts
10-Jul-20 16:54 45.213625 -122.384765 135 20070ft 425kts
10-Jul-20 16:55 45.132520 -122.260433 136 21695ft 435kts
10-Jul-20 16:56 45.045216 -122.140510 154 23131ft 437kts
10-Jul-20 16:57 44.934155 -122.067716 158 24484ft 443kts
10-Jul-20 16:58 44.822213 -121.991966 158 25726ft 451kts
10-Jul-20 16:59 44.707662 -121.916213 158 26878ft 458kts
10-Jul-20 17:00 44.591314 -121.839047 158 27986ft 464kts
10-Jul-20 17:01 44.473820 -121.761595 158 29009ft 470kts
10-Jul-20 17:02 44.355809 -121.684098 158 30355ft 465kts
10-Jul-20 17:03 44.239090 -121.607851 159 31591ft 462kts
10-Jul-20 17:04 44.122902 -121.532168 159 32771ft 459kts
10-Jul-20 17:05 44.007641 -121.457377 159 33837ft 456kts
10-Jul-20 17:06 43.892846 -121.383564 160 34830ft 453kts
10-Jul-20 17:07 43.779032 -121.310378 161 35644ft 452kts
10-Jul-20 17:08 43.664981 -121.237432 161 36373ft 451kts
10-Jul-20 17:09 43.551099 -121.164925 162 37019ft 449kts
10-Jul-20 17:10 43.437676 -121.093021 163 37281ft 448kts
10-Jul-20 17:11 43.324168 -121.021403 163 37279ft 448kts
10-Jul-20 17:12 43.210816 -120.950022 163 37274ft 448kts
10-Jul-20 17:13 43.095006 -120.894689 172 37270ft 438kts
10-Jul-20 17:14 42.977796 -120.846519 171 37289ft 439kts
10-Jul-20 17:15 42.861068 -120.798140 172 37300ft 437kts
10-Jul-20 17:16 42.744861 -120.750162 172 37255ft 435kts
10-Jul-20 17:17 42.629449 -120.702785 172 37225ft 432kts
10-Jul-20 17:18 42.514362 -120.655712 173 37203ft 432kts
10-Jul-20 17:19 42.398340 -120.608443 173 37213ft 438kts
10-Jul-20 17:20 42.281345 -120.560846 173 37293ft 438kts
10-Jul-20 17:21 42.165201 -120.513863 173 37289ft 431kts
10-Jul-20 17:22 42.050732 -120.467790 173 37204ft 426kts
10-Jul-20 17:23 41.937195 -120.422222 173 37199ft 427kts
10-Jul-20 17:24 41.821819 -120.376130 173 37242ft 438kts
10-Jul-20 17:25 41.705279 -120.329610 173 37276ft 435kts
10-Jul-20 17:26 41.589944 -120.283824 173 37236ft 429kts
10-Jul-20 17:27 41.475918 -120.238736 173 37179ft 426kts
10-Jul-20 17:28 41.361804 -120.193822 173 37176ft 428kts
10-Jul-20 17:29 41.246014 -120.148401 173 37230ft 438kts
10-Jul-20 17:30 41.129083 -120.105096 176 37259ft 431kts
10-Jul-20 17:31 41.012440 -120.072058 177 37214ft 425kts
10-Jul-20 17:32 40.897373 -120.038858 176 36479ft 423kts
10-Jul-20 17:33 40.781798 -120.004018 174 35265ft 428kts
10-Jul-20 17:34 40.665452 -119.966260 174 32769ft 434kts
10-Jul-20 17:35 40.547270 -119.928246 173 30162ft 437kts
10-Jul-20 17:36 40.428484 -119.890174 172 27457ft 438kts
10-Jul-20 17:37 40.311344 -119.852777 172 24953ft 430kts
10-Jul-20 17:38 40.196589 -119.816223 171 22514ft 418kts
10-Jul-20 17:39 40.085192 -119.780940 170 20146ft 406kts
10-Jul-20 17:40 39.981299 -119.725944 154 17678ft 404kts
10-Jul-20 17:41 39.879757 -119.675889 180 14991ft 386kts
10-Jul-20 17:42 39.772440 -119.675408 179 12014ft 373kts
10-Jul-20 17:43 39.674650 -119.670634 177 11929ft 315kts
10-Jul-20 17:44 39.594552 -119.662409 177 11219ft 268kts
10-Jul-20 17:45 39.522885 -119.655942 181 10248ft 249kts
10-Jul-20 17:46 39.454026 -119.655898 178 9678ft 247kts
10-Jul-20 17:47 39.385734 -119.652931 180 8729ft 237kts
10-Jul-20 17:48 39.337825 -119.682294 252 7907ft 204kts
10-Jul-20 17:49 39.346733 -119.750428 314 6996ft 192kts
10-Jul-20 17:50 39.399970 -119.767400 355 6501ft 190kts
10-Jul-20 17:51 39.445803 -119.766922 353 5468ft 151kts
10-Jul-20 17:52 39.487237 -119.766795 354 4502ft 147kts
10-Jul-20 17:53 39.509615 -119.767506 332 4429ft 3kts
10-Jul-20 17:54 39.509837 -119.767654 332 4429ft 4kts
10-Jul-20 17:55 39.510689 -119.771356 229 4429ft 14kts
10-Jul-20 17:56 39.508363 -119.772036 270 4429ft 9kts
10-Jul-20 17:57 39.507870 -119.772657 176 4429ft 0kts
10-Jul-20 17:58 39.507870 -119.772657 176 4429ft 0kts
10-Jul-20 17:59 39.507870 -119.772657 176 4429ft 0kts
10-Jul-20 18:00 39.507870 -119.772657 176 4429ft 0kts
10-Jul-20 18:01 39.507870 -119.772657 176 4429ft 0kts
10-Jul-20 18:02 39.507870 -119.772657 176 4429ft 0kts

Navigation Log

Ident Type
Flight plan parsing failed, navigation log unavailable